Terminal Aerodrome Forecast
Issued by NWS

Home | Current Version | Previous Version | Text Only | Print | Product List | Glossary On
Versions: 1 2 3 4 5 6 7 8 9 10 11 12 13 14 15 16 17 18 19 20 21
642
FTUS43 KDLH 251120
TAFHIB
TAF
KHIB 251120Z 2512/2612 32011KT P6SM FEW030
     FM251700 31008KT P6SM FEW035
     FM252300 VRB03KT P6SM FEW130
     FM260900 21006KT P6SM SCT015 WS020/27035KT=

USA.gov is the U.S. government's official web portal to all federal, state and local government web resources and services.